ARFOR WordPress Shortcode Example

and like us on FB

This page is used to demonstrate the ARFOR feature of the Metar WordPress plugin.

BANKSTOWN YSBK

TAF YSBK 231704Z 2318/2412
27005KT CAVOK
FM240000 25012KT CAVOK
FM240800 25005KT CAVOK
RMK FM231800 MOD TURB BLW 5000FT TILL240400
T 08 06 14 19 Q 1016 1019 1020 1018

METAR YSBK 232230Z AUTO 00000KT 9999 // NCD 09/03 Q1019
RMK RF00.0/000.0

BATHURST YBTH

TAF YBTH 231847Z 2320/2408
29005KT CAVOK
FM240000 25010KT 9999 SCT040
TEMPO 2320/2323 28005KT 9999 BKN014
RMK
T 02 06 13 13 Q 1019 1021 1021 1020

METAR YBTH 232230Z AUTO 03004KT 9999 // NCD 06/01 Q1021 RMK
RF00.0/000.0


CAMDEN YSCN

TAF YSCN 231703Z 2318/2412
VRB03KT CAVOK
FM240100 25012KT CAVOK
FM240800 25005KT CAVOK
RMK FM231800 MOD TURB BLW 5000FT TILL240400
T 05 04 13 18 Q 1016 1019 1020 1018

METAR YSCN 232230Z AUTO 00000KT 9999 // NCD 08/04 Q1019 RMK
RF00.0/000.0


* CANBERRA YSCB

TAF AMD YSCB 232156Z 2322/2418
33008KT 9999 FEW012
FM240100 29014KT 9999 FEW035
FM240900 35005KT 9999 SCT025
FM241200 VRB03KT CAVOK
PROB30 2414/2418 0500 FG BKN001
RMK
T 06 11 12 10 Q 1019 1020 1018 1019

TTF METAR YSCB 232230Z 34014KT 9999 FEW012 08/04 Q1019
RMK RF00.0/000.0
FM0030 29014KT 9999 FEW035

COOMA YCOM

TAF AMD YCOM 232210Z 2322/2408
VRB04KT 9999 FEW040
FM240000 27012KT 9999 FEW040
RMK
T 04 09 10 06 Q 1017 1018 1017 1018

METAR YCOM 232230Z AUTO 31005KT 290V020 9999 // NCD 06/01 Q1017 RMK
RF00.0/000.0


COOTAMUNDRA YCTM

Nil current TAF.

METAR/SPECI observations are not generated for this location.

COWRA YCWR

Nil current TAF.

METAR YCWR 232230Z AUTO 36004KT //// // ////// 06/01 Q1022
RMK RF00.0/000.0

FORBES YFBS

Nil current TAF.

METAR YFBS 232230Z AUTO 33003KT //// // ////// 06/02 Q1022 RMK
RF00.0/000.0


GOULBURN YGLB

TAF AMD YGLB 231926Z 2320/2408
32008KT 9999 BKN012
FM240000 29018G28KT CAVOK
FM240700 28012KT 9999 FEW045
RMK FM232000 MOD TURB BLW 5000FT TILL232300
T 06 07 10 11 Q 1017 1020 1020 1019

METAR YGLB 232230Z AUTO 30011KT 9999 // SCT013 08/04 Q1020 RMK
RF00.0/000.0


HOLSWORTHY YSHW

TAF YSHW 231704Z 2318/2412
27005KT CAVOK
FM240000 25012KT CAVOK
FM240800 25005KT CAVOK
RMK FM231800 MOD TURB BLW 5000FT TILL240400
T 07 05 14 18 Q 1016 1018 1020 1018

METAR YSHW 232230Z AUTO 12004KT 9999 // NCD 11/04 Q1019 RMK
RF00.0/000.0


LORD HOWE ISLAND YLHI

TAF YLHI 231703Z 2318/2418
27015KT 9999 SCT025
FM240000 25015G25KT 9999 SCT030
FM240800 23013KT 9999 -SHRA SCT025
RMK FM231800 MOD TURB BLW 5000FT TILL240800
T 18 18 19 20 Q 1015 1017 1017 1016

METAR YLHI 232200Z 25017KT 9999 FEW027 19/15 Q1017
RMK RF00.0/000.4

MALLACOOTA YMCO

Nil current TAF.

METAR YMCO 232230Z AUTO 27006KT //// // ////// 11/07 Q1017
RMK RF00.0/000.0

MERIMBULA YMER

TAF YMER 231847Z 2320/2408
26005KT 9999 SCT050
FM240400 10005KT 9999 SCT050
RMK
T 05 10 16 16 Q 1016 1018 1018 1017

METAR YMER 232230Z AUTO 00000KT 9999 // SCT062 07/05 Q1018 RMK
RF00.0/000.0


MORUYA YMRY

TAF YMRY 231847Z 2320/2408
30008KT CAVOK
FM240300 10005KT CAVOK
RMK
T 05 11 18 17 Q 1016 1018 1018 1017

METAR YMRY 232230Z AUTO 23005KT 9999 // NCD 08/05 Q1018 RMK
RF00.0/000.0


NORFOLK ISLAND YSNF

TAF YSNF 231703Z 2318/2418
25010KT 9999 -SHRA SCT025 SCT040
FM240900 25015KT 9999 -SHRA SCT020 SCT035
INTER 2409/2418 5000 SHRA BKN015
RMK
T 14 16 18 18 Q 1017 1018 1018 1016

METAR YSNF 232200Z 21009KT 9999 FEW025 17/11 Q1018
RMK RF00.0/000.0

* NOWRA YSNW

YSNW TAF AMD YSNW 231906Z 2319/2406
27010KT CAVOK
RMK FM231900 MOD TURB BLW 5000FT TILL232400
T 07 10 17 17 Q 1015 1018 1018 1017

TTF METAR YSNW 232230Z 30012KT CAVOK 13/05 Q1018
RMK RF00.0/000.0 DA +50FT
FM2230 MOD TURB BLW 5000FT

ORANGE YORG

TAF YORG 231847Z 2320/2408
25008KT 9999 BKN010
BECMG 2401/2402 25012KT 9999 SCT020
RMK
T 01 07 10 10 Q 1019 1021 1021 1020

METAR YORG 232230Z AUTO 25006KT 9999 // NCD 07/04 Q1021 RMK
RF00.0/000.0


PARKES YPKS

TAF YPKS 231847Z 2320/2408
02005KT CAVOK
FM232300 23010KT 9999 SCT020
RMK
T 01 08 14 16 Q 1020 1023 1022 1021

METAR YPKS 232230Z AUTO 06004KT 9999 // NCD 05/01 Q1023 RMK
RF00.0/000.0


RICHMOND (NSW) YSRI

TAF YSRI 231702Z 2318/2418
32007KT CAVOK
FM232100 24010KT CAVOK
FM240900 VRB05KT CAVOK
PROB30 2417/2418 0500 FG
RMK FM231800 MOD TURB BLW 5000FT TILL240100
T 07 05 14 19 Q 1016 1019 1020 1018

METAR YSRI 232230Z AUTO 00000KT 9999 // NCD 11/04 Q1019 RMK
RF00.0/000.0 PRESENT WEATHER SENSOR US


* SYDNEY YSSY

TAF YSSY 231704Z 2318/2424
29008KT CAVOK
FM240000 25015KT CAVOK
FM240400 22008KT CAVOK
FM241000 29008KT CAVOK
RMK FM231800 MOD TURB BLW 5000FT TILL240400
T 11 11 16 19 Q 1016 1018 1020 1018

TTF METAR YSSY 232230Z 33008KT CAVOK 15/02 Q1019
RMK RF00.0/000.0
FM2230 MOD TURB BLW 5000FT

TEMORA YTEM

Nil current TAF.

METAR YTEM 232230Z AUTO 25007KT //// // ////// 08/08 Q1022 RMK
RF00.0/000.0


WAGGA WAGGA YSWG

TAF AMD YSWG 232210Z 2322/2406
31005KT 9999 BKN005
BECMG 2401/2403 25007KT 9999 SCT020 BKN030
PROB30 2322/2400 5000 BR
RMK
T 08 10 12 Q 1021 1022 1021

SPECI YSWG 232211Z 30006KT 4000 PRFG BCFG OVC003 08/07 Q1021 RMK
RF00.0/000.2


WOLLONGONG YWOL

TAF AMD YWOL 231901Z 2319/2408
26010KT CAVOK
RMK FM231900 MOD TURB BLW 5000FT TILL232400
T 13 12 17 19 Q 1015 1018 1019 1017

METAR YWOL 232230Z AUTO 28010KT 9999 // NCD 15/05 Q1018 RMK
RF00.0/000.0


YOUNG YYNG

TAF YYNG 231847Z 2320/2408
27003KT 9999 SCT020
BECMG 2401/2403 25008KT 9999 SCT030
PROB30 2320/2323 0500 FG BKN001
RMK
T 01 05 11 13 Q 1019 1022 1021 1021

METAR YYNG 232230Z AUTO 30002KT //// // ////// 07/07 Q1021 RMK
RF00.0/000.0


* Note: The latest TTF automatically supersedes the TAF for the 3 hr validity of the TTF, unless otherwise specified in the TTF.